sensor_id;sensor_type;location;lat;lon;timestamp;P1;durP1;ratioP1;P2;durP2;ratioP2
20423;SDS011;10371;49.042;8.002;2022-09-24T00:00:19;2.60;;;2.40;;
20423;SDS011;10371;49.042;8.002;2022-09-24T00:01:20;2.67;;;2.47;;
20423;SDS011;10371;49.042;8.002;2022-09-24T00:02:21;3.13;;;2.38;;
20423;SDS011;10371;49.042;8.002;2022-09-24T00:03:22;2.97;;;2.60;;
20423;SDS011;10371;49.042;8.002;2022-09-24T00:04:24;2.63;;;2.35;;
20423;SDS011;10371;49.042;8.002;2022-09-24T00:05:26;2.50;;;2.40;;
20423;SDS011;10371;49.042;8.002;2022-09-24T00:06:27;2.53;;;2.33;;
20423;SDS011;10371;49.042;8.002;2022-09-24T00:07:29;2.60;;;2.42;;
20423;SDS011;10371;49.042;8.002;2022-09-24T00:08:29;2.63;;;2.42;;
20423;SDS011;10371;49.042;8.002;2022-09-24T00:09:29;3.00;;;2.70;;
20423;SDS011;10371;49.042;8.002;2022-09-24T00:10:30;2.90;;;2.70;;
20423;SDS011;10371;49.042;8.002;2022-09-24T00:11:30;2.55;;;2.35;;
20423;SDS011;10371;49.042;8.002;2022-09-24T00:12:31;2.60;;;2.40;;
20423;SDS011;10371;49.042;8.002;2022-09-24T00:13:33;2.50;;;2.30;;
20423;SDS011;10371;49.042;8.002;2022-09-24T00:14:34;2.53;;;2.33;;
20423;SDS011;10371;49.042;8.002;2022-09-24T00:15:35;3.55;;;2.30;;
20423;SDS011;10371;49.042;8.002;2022-09-24T00:16:37;2.47;;;2.20;;
20423;SDS011;10371;49.042;8.002;2022-09-24T00:17:39;2.45;;;2.22;;
20423;SDS011;10371;49.042;8.002;2022-09-24T00:18:39;4.05;;;2.25;;
20423;SDS011;10371;49.042;8.002;2022-09-24T00:19:40;2.28;;;2.17;;
20423;SDS011;10371;49.042;8.002;2022-09-24T00:20:40;2.50;;;2.30;;
20423;SDS011;10371;49.042;8.002;2022-09-24T00:21:42;2.55;;;2.35;;
20423;SDS011;10371;49.042;8.002;2022-09-24T00:22:42;2.35;;;2.20;;
20423;SDS011;10371;49.042;8.002;2022-09-24T00:23:43;2.47;;;2.30;;
20423;SDS011;10371;49.042;8.002;2022-09-24T00:24:43;2.50;;;2.30;;
20423;SDS011;10371;49.042;8.002;2022-09-24T00:26:02;2.85;;;2.50;;
20423;SDS011;10371;49.042;8.002;2022-09-24T00:27:21;2.30;;;2.10;;
20423;SDS011;10371;49.042;8.002;2022-09-24T00:28:21;2.42;;;2.22;;
20423;SDS011;10371;49.042;8.002;2022-09-24T00:29:22;2.50;;;2.30;;
20423;SDS011;10371;49.042;8.002;2022-09-24T00:30:23;2.42;;;2.22;;
20423;SDS011;10371;49.042;8.002;2022-09-24T00:31:23;2.80;;;2.60;;
20423;SDS011;10371;49.042;8.002;2022-09-24T00:32:25;2.80;;;2.60;;
20423;SDS011;10371;49.042;8.002;2022-09-24T00:33:26;2.93;;;2.67;;
20423;SDS011;10371;49.042;8.002;2022-09-24T00:34:30;2.35;;;2.15;;
20423;SDS011;10371;49.042;8.002;2022-09-24T00:35:31;2.95;;;2.60;;
20423;SDS011;10371;49.042;8.002;2022-09-24T00:36:35;3.22;;;2.90;;
20423;SDS011;10371;49.042;8.002;2022-09-24T00:37:36;2.75;;;2.55;;
20423;SDS011;10371;49.042;8.002;2022-09-24T00:38:36;3.00;;;2.40;;
20423;SDS011;10371;49.042;8.002;2022-09-24T00:39:36;2.55;;;2.35;;
20423;SDS011;10371;49.042;8.002;2022-09-24T00:40:37;3.97;;;2.40;;
20423;SDS011;10371;49.042;8.002;2022-09-24T00:41:39;2.55;;;2.25;;
20423;SDS011;10371;49.042;8.002;2022-09-24T00:42:43;2.75;;;2.55;;
20423;SDS011;10371;49.042;8.002;2022-09-24T00:43:44;3.70;;;2.90;;
20423;SDS011;10371;49.042;8.002;2022-09-24T00:44:49;2.58;;;2.35;;
20423;SDS011;10371;49.042;8.002;2022-09-24T00:45:57;3.33;;;2.50;;
20423;SDS011;10371;49.042;8.002;2022-09-24T00:47:05;2.63;;;2.43;;
20423;SDS011;10371;49.042;8.002;2022-09-24T00:48:12;2.70;;;2.50;;
20423;SDS011;10371;49.042;8.002;2022-09-24T00:49:13;2.63;;;2.42;;
20423;SDS011;10371;49.042;8.002;2022-09-24T00:50:24;2.80;;;2.60;;
20423;SDS011;10371;49.042;8.002;2022-09-24T00:51:30;2.70;;;2.50;;
20423;SDS011;10371;49.042;8.002;2022-09-24T00:52:33;2.97;;;2.70;;
20423;SDS011;10371;49.042;8.002;2022-09-24T00:53:39;2.90;;;2.70;;
20423;SDS011;10371;49.042;8.002;2022-09-24T00:54:42;3.00;;;2.80;;
20423;SDS011;10371;49.042;8.002;2022-09-24T00:55:45;2.90;;;2.70;;
20423;SDS011;10371;49.042;8.002;2022-09-24T00:56:49;3.10;;;2.90;;
20423;SDS011;10371;49.042;8.002;2022-09-24T00:57:55;3.40;;;2.60;;
20423;SDS011;10371;49.042;8.002;2022-09-24T00:58:57;3.13;;;2.83;;
20423;SDS011;10371;49.042;8.002;2022-09-24T01:00:02;2.87;;;2.67;;
20423;SDS011;10371;49.042;8.002;2022-09-24T01:01:04;3.17;;;2.87;;
20423;SDS011;10371;49.042;8.002;2022-09-24T01:02:06;2.80;;;2.60;;
20423;SDS011;10371;49.042;8.002;2022-09-24T01:03:08;3.00;;;2.80;;
20423;SDS011;10371;49.042;8.002;2022-09-24T01:04:13;2.75;;;2.55;;
20423;SDS011;10371;49.042;8.002;2022-09-24T01:05:16;3.40;;;2.70;;
20423;SDS011;10371;49.042;8.002;2022-09-24T01:06:17;3.67;;;2.80;;
20423;SDS011;10371;49.042;8.002;2022-09-24T01:07:17;2.93;;;2.73;;
20423;SDS011;10371;49.042;8.002;2022-09-24T01:08:17;3.43;;;2.60;;
20423;SDS011;10371;49.042;8.002;2022-09-24T01:09:19;2.80;;;2.60;;
20423;SDS011;10371;49.042;8.002;2022-09-24T01:10:32;3.03;;;2.83;;
20423;SDS011;10371;49.042;8.002;2022-09-24T01:13:07;3.07;;;2.80;;
20423;SDS011;10371;49.042;8.002;2022-09-24T01:15:55;3.10;;;2.70;;
20423;SDS011;10371;49.042;8.002;2022-09-24T01:18:39;2.97;;;2.73;;
20423;SDS011;10371;49.042;8.002;2022-09-24T01:22:31;3.63;;;2.70;;
20423;SDS011;10371;49.042;8.002;2022-09-24T01:24:03;3.90;;;3.23;;
20423;SDS011;10371;49.042;8.002;2022-09-24T01:26:31;3.60;;;3.00;;
20423;SDS011;10371;49.042;8.002;2022-09-24T01:29:22;3.10;;;2.90;;
20423;SDS011;10371;49.042;8.002;2022-09-24T01:30:27;3.50;;;3.20;;
20423;SDS011;10371;49.042;8.002;2022-09-24T01:31:35;2.87;;;2.60;;
20423;SDS011;10371;49.042;8.002;2022-09-24T01:32:51;3.43;;;2.90;;
20423;SDS011;10371;49.042;8.002;2022-09-24T01:33:56;3.30;;;2.80;;
20423;SDS011;10371;49.042;8.002;2022-09-24T01:35:14;3.00;;;2.80;;
20423;SDS011;10371;49.042;8.002;2022-09-24T01:36:21;2.97;;;2.70;;
20423;SDS011;10371;49.042;8.002;2022-09-24T01:37:23;3.30;;;3.10;;
20423;SDS011;10371;49.042;8.002;2022-09-24T01:38:28;3.93;;;2.80;;
20423;SDS011;10371;49.042;8.002;2022-09-24T01:39:34;3.67;;;3.10;;
20423;SDS011;10371;49.042;8.002;2022-09-24T01:40:36;3.13;;;2.93;;
20423;SDS011;10371;49.042;8.002;2022-09-24T01:41:38;3.20;;;3.00;;
20423;SDS011;10371;49.042;8.002;2022-09-24T01:42:42;3.73;;;3.43;;
20423;SDS011;10371;49.042;8.002;2022-09-24T01:43:44;3.90;;;2.93;;
20423;SDS011;10371;49.042;8.002;2022-09-24T01:44:45;3.60;;;3.30;;
20423;SDS011;10371;49.042;8.002;2022-09-24T01:45:46;3.30;;;3.00;;
20423;SDS011;10371;49.042;8.002;2022-09-24T01:46:47;4.53;;;3.50;;
20423;SDS011;10371;49.042;8.002;2022-09-24T01:47:49;4.10;;;3.30;;
20423;SDS011;10371;49.042;8.002;2022-09-24T01:48:49;3.93;;;3.33;;
20423;SDS011;10371;49.042;8.002;2022-09-24T01:49:50;3.73;;;3.13;;
20423;SDS011;10371;49.042;8.002;2022-09-24T01:52:06;4.13;;;3.77;;
20423;SDS011;10371;49.042;8.002;2022-09-24T01:53:15;4.10;;;3.70;;
20423;SDS011;10371;49.042;8.002;2022-09-24T01:54:20;3.80;;;3.50;;
20423;SDS011;10371;49.042;8.002;2022-09-24T01:55:26;4.43;;;3.27;;
20423;SDS011;10371;49.042;8.002;2022-09-24T01:56:31;3.80;;;3.50;;
20423;SDS011;10371;49.042;8.002;2022-09-24T01:57:37;3.50;;;3.20;;
20423;SDS011;10371;49.042;8.002;2022-09-24T01:58:45;3.67;;;3.37;;
20423;SDS011;10371;49.042;8.002;2022-09-24T02:01:09;3.53;;;3.27;;
20423;SDS011;10371;49.042;8.002;2022-09-24T02:02:20;4.17;;;3.60;;
20423;SDS011;10371;49.042;8.002;2022-09-24T02:03:28;3.93;;;3.60;;
20423;SDS011;10371;49.042;8.002;2022-09-24T02:04:35;3.93;;;3.60;;
20423;SDS011;10371;49.042;8.002;2022-09-24T02:06:58;6.23;;;3.60;;
20423;SDS011;10371;49.042;8.002;2022-09-24T02:08:14;4.13;;;3.73;;
20423;SDS011;10371;49.042;8.002;2022-09-24T02:09:31;3.90;;;3.60;;
20423;SDS011;10371;49.042;8.002;2022-09-24T02:11:15;5.03;;;3.80;;
20423;SDS011;10371;49.042;8.002;2022-09-24T02:13:18;3.60;;;3.40;;
20423;SDS011;10371;49.042;8.002;2022-09-24T02:14:23;4.27;;;3.87;;
20423;SDS011;10371;49.042;8.002;2022-09-24T02:15:32;3.90;;;3.60;;
20423;SDS011;10371;49.042;8.002;2022-09-24T02:16:40;3.70;;;3.40;;
20423;SDS011;10371;49.042;8.002;2022-09-24T02:17:46;3.93;;;3.63;;
20423;SDS011;10371;49.042;8.002;2022-09-24T02:18:49;4.13;;;3.60;;
20423;SDS011;10371;49.042;8.002;2022-09-24T02:19:53;3.20;;;3.00;;
20423;SDS011;10371;49.042;8.002;2022-09-24T02:20:58;4.17;;;3.87;;
20423;SDS011;10371;49.042;8.002;2022-09-24T02:22:03;3.77;;;3.47;;
20423;SDS011;10371;49.042;8.002;2022-09-24T02:23:07;4.03;;;3.63;;
20423;SDS011;10371;49.042;8.002;2022-09-24T02:24:12;3.60;;;3.30;;
20423;SDS011;10371;49.042;8.002;2022-09-24T02:25:17;3.83;;;3.53;;
20423;SDS011;10371;49.042;8.002;2022-09-24T02:26:21;3.80;;;3.50;;
20423;SDS011;10371;49.042;8.002;2022-09-24T02:27:23;4.60;;;3.43;;
20423;SDS011;10371;49.042;8.002;2022-09-24T02:28:27;3.90;;;3.40;;
20423;SDS011;10371;49.042;8.002;2022-09-24T02:29:29;3.70;;;3.50;;
20423;SDS011;10371;49.042;8.002;2022-09-24T02:30:30;4.20;;;3.80;;
20423;SDS011;10371;49.042;8.002;2022-09-24T02:31:36;3.77;;;3.20;;
20423;SDS011;10371;49.042;8.002;2022-09-24T02:32:41;3.63;;;3.33;;
20423;SDS011;10371;49.042;8.002;2022-09-24T02:33:44;3.53;;;3.23;;
20423;SDS011;10371;49.042;8.002;2022-09-24T02:35:07;3.50;;;3.20;;
20423;SDS011;10371;49.042;8.002;2022-09-24T02:36:09;3.77;;;3.47;;
20423;SDS011;10371;49.042;8.002;2022-09-24T02:37:11;3.40;;;3.10;;
20423;SDS011;10371;49.042;8.002;2022-09-24T02:38:16;4.13;;;3.10;;
20423;SDS011;10371;49.042;8.002;2022-09-24T02:39:17;3.40;;;3.10;;
20423;SDS011;10371;49.042;8.002;2022-09-24T02:40:18;3.17;;;2.87;;
20423;SDS011;10371;49.042;8.002;2022-09-24T02:41:18;3.63;;;3.13;;
20423;SDS011;10371;49.042;8.002;2022-09-24T02:42:22;3.27;;;2.90;;
20423;SDS011;10371;49.042;8.002;2022-09-24T02:43:23;3.57;;;3.27;;
20423;SDS011;10371;49.042;8.002;2022-09-24T02:44:25;3.80;;;3.17;;
20423;SDS011;10371;49.042;8.002;2022-09-24T02:45:25;3.43;;;3.13;;
20423;SDS011;10371;49.042;8.002;2022-09-24T02:46:26;3.23;;;3.03;;
20423;SDS011;10371;49.042;8.002;2022-09-24T02:47:26;3.00;;;2.77;;
20423;SDS011;10371;49.042;8.002;2022-09-24T02:48:27;3.80;;;3.30;;
20423;SDS011;10371;49.042;8.002;2022-09-24T02:49:27;3.27;;;3.00;;
20423;SDS011;10371;49.042;8.002;2022-09-24T02:50:28;3.50;;;3.20;;
20423;SDS011;10371;49.042;8.002;2022-09-24T02:51:28;3.83;;;3.53;;
20423;SDS011;10371;49.042;8.002;2022-09-24T02:52:29;4.43;;;3.77;;
20423;SDS011;10371;49.042;8.002;2022-09-24T02:53:30;4.07;;;3.70;;
20423;SDS011;10371;49.042;8.002;2022-09-24T02:54:31;3.80;;;3.50;;
20423;SDS011;10371;49.042;8.002;2022-09-24T02:55:31;4.43;;;3.70;;
20423;SDS011;10371;49.042;8.002;2022-09-24T02:56:31;4.23;;;3.93;;
20423;SDS011;10371;49.042;8.002;2022-09-24T02:57:32;4.40;;;4.00;;
20423;SDS011;10371;49.042;8.002;2022-09-24T02:58:33;4.10;;;3.60;;
20423;SDS011;10371;49.042;8.002;2022-09-24T02:59:36;3.80;;;3.57;;
20423;SDS011;10371;49.042;8.002;2022-09-24T03:00:36;6.90;;;3.90;;
20423;SDS011;10371;49.042;8.002;2022-09-24T03:01:36;4.60;;;4.17;;
20423;SDS011;10371;49.042;8.002;2022-09-24T03:02:37;4.20;;;3.90;;
20423;SDS011;10371;49.042;8.002;2022-09-24T03:03:37;4.20;;;3.80;;
20423;SDS011;10371;49.042;8.002;2022-09-24T03:04:37;3.87;;;3.57;;
20423;SDS011;10371;49.042;8.002;2022-09-24T03:05:38;4.00;;;3.70;;
20423;SDS011;10371;49.042;8.002;2022-09-24T03:06:38;4.10;;;3.80;;
20423;SDS011;10371;49.042;8.002;2022-09-24T03:07:39;3.83;;;3.53;;
20423;SDS011;10371;49.042;8.002;2022-09-24T03:08:39;4.10;;;3.80;;
20423;SDS011;10371;49.042;8.002;2022-09-24T03:09:41;3.83;;;3.53;;
20423;SDS011;10371;49.042;8.002;2022-09-24T03:10:41;4.20;;;3.80;;
20423;SDS011;10371;49.042;8.002;2022-09-24T03:11:41;3.70;;;3.50;;
20423;SDS011;10371;49.042;8.002;2022-09-24T03:12:42;3.83;;;3.53;;
20423;SDS011;10371;49.042;8.002;2022-09-24T03:13:42;4.00;;;3.70;;
20423;SDS011;10371;49.042;8.002;2022-09-24T03:14:42;4.83;;;3.70;;
20423;SDS011;10371;49.042;8.002;2022-09-24T03:15:45;5.33;;;3.70;;
20423;SDS011;10371;49.042;8.002;2022-09-24T03:16:46;4.27;;;3.97;;
20423;SDS011;10371;49.042;8.002;2022-09-24T03:17:46;4.37;;;4.00;;
20423;SDS011;10371;49.042;8.002;2022-09-24T03:18:46;4.53;;;4.13;;
20423;SDS011;10371;49.042;8.002;2022-09-24T03:19:47;5.40;;;4.53;;
20423;SDS011;10371;49.042;8.002;2022-09-24T03:20:54;4.00;;;3.70;;
20423;SDS011;10371;49.042;8.002;2022-09-24T03:21:55;4.60;;;4.20;;
20423;SDS011;10371;49.042;8.002;2022-09-24T03:22:55;4.37;;;4.07;;
20423;SDS011;10371;49.042;8.002;2022-09-24T03:23:56;4.43;;;3.70;;
20423;SDS011;10371;49.042;8.002;2022-09-24T03:24:56;3.77;;;3.47;;
20423;SDS011;10371;49.042;8.002;2022-09-24T03:25:57;4.93;;;3.60;;
20423;SDS011;10371;49.042;8.002;2022-09-24T03:26:57;4.23;;;3.93;;
20423;SDS011;10371;49.042;8.002;2022-09-24T03:27:57;3.63;;;3.33;;
20423;SDS011;10371;49.042;8.002;2022-09-24T03:28:57;4.03;;;3.70;;
20423;SDS011;10371;49.042;8.002;2022-09-24T03:29:58;3.70;;;3.50;;
20423;SDS011;10371;49.042;8.002;2022-09-24T03:31:16;4.37;;;3.97;;
20423;SDS011;10371;49.042;8.002;2022-09-24T03:32:17;4.03;;;3.73;;
20423;SDS011;10371;49.042;8.002;2022-09-24T03:33:17;4.00;;;3.70;;
20423;SDS011;10371;49.042;8.002;2022-09-24T03:34:18;4.10;;;3.80;;
20423;SDS011;10371;49.042;8.002;2022-09-24T03:35:18;4.20;;;3.90;;
20423;SDS011;10371;49.042;8.002;2022-09-24T03:36:20;4.43;;;4.10;;
20423;SDS011;10371;49.042;8.002;2022-09-24T03:37:23;4.37;;;3.97;;
20423;SDS011;10371;49.042;8.002;2022-09-24T03:38:23;4.57;;;4.17;;
20423;SDS011;10371;49.042;8.002;2022-09-24T03:39:25;4.07;;;3.70;;
20423;SDS011;10371;49.042;8.002;2022-09-24T03:40:25;4.50;;;3.53;;
20423;SDS011;10371;49.042;8.002;2022-09-24T03:41:26;4.23;;;3.83;;
20423;SDS011;10371;49.042;8.002;2022-09-24T03:42:27;4.37;;;4.07;;
20423;SDS011;10371;49.042;8.002;2022-09-24T03:43:27;4.20;;;3.90;;
20423;SDS011;10371;49.042;8.002;2022-09-24T03:44:28;4.10;;;3.80;;
20423;SDS011;10371;49.042;8.002;2022-09-24T03:45:28;3.80;;;3.57;;
20423;SDS011;10371;49.042;8.002;2022-09-24T03:46:28;4.57;;;3.77;;
20423;SDS011;10371;49.042;8.002;2022-09-24T03:47:29;5.17;;;4.10;;
20423;SDS011;10371;49.042;8.002;2022-09-24T03:48:30;4.60;;;4.30;;
20423;SDS011;10371;49.042;8.002;2022-09-24T03:49:30;4.57;;;4.27;;
20423;SDS011;10371;49.042;8.002;2022-09-24T03:50:31;4.10;;;3.80;;
20423;SDS011;10371;49.042;8.002;2022-09-24T03:51:34;4.50;;;4.10;;
20423;SDS011;10371;49.042;8.002;2022-09-24T03:52:34;4.30;;;4.00;;
20423;SDS011;10371;49.042;8.002;2022-09-24T03:53:35;4.40;;;3.93;;
20423;SDS011;10371;49.042;8.002;2022-09-24T03:54:35;4.90;;;4.40;;
20423;SDS011;10371;49.042;8.002;2022-09-24T03:55:40;4.37;;;4.00;;
20423;SDS011;10371;49.042;8.002;2022-09-24T03:56:41;4.87;;;4.47;;
20423;SDS011;10371;49.042;8.002;2022-09-24T03:57:42;4.13;;;3.83;;
20423;SDS011;10371;49.042;8.002;2022-09-24T03:58:42;4.60;;;4.20;;
20423;SDS011;10371;49.042;8.002;2022-09-24T03:59:46;4.20;;;3.90;;
20423;SDS011;10371;49.042;8.002;2022-09-24T04:00:46;4.03;;;3.50;;
20423;SDS011;10371;49.042;8.002;2022-09-24T04:01:46;4.27;;;3.87;;
20423;SDS011;10371;49.042;8.002;2022-09-24T04:02:47;4.40;;;4.10;;
20423;SDS011;10371;49.042;8.002;2022-09-24T04:03:47;4.40;;;4.00;;
20423;SDS011;10371;49.042;8.002;2022-09-24T04:04:48;4.60;;;4.20;;
20423;SDS011;10371;49.042;8.002;2022-09-24T04:05:49;4.20;;;3.80;;
20423;SDS011;10371;49.042;8.002;2022-09-24T04:06:50;3.83;;;3.53;;
20423;SDS011;10371;49.042;8.002;2022-09-24T04:07:51;4.20;;;3.90;;
20423;SDS011;10371;49.042;8.002;2022-09-24T04:08:52;4.00;;;3.70;;
20423;SDS011;10371;49.042;8.002;2022-09-24T04:09:52;3.93;;;3.63;;
20423;SDS011;10371;49.042;8.002;2022-09-24T04:10:52;3.93;;;3.63;;
20423;SDS011;10371;49.042;8.002;2022-09-24T04:11:54;4.57;;;4.13;;
20423;SDS011;10371;49.042;8.002;2022-09-24T04:12:54;4.80;;;4.17;;
20423;SDS011;10371;49.042;8.002;2022-09-24T04:13:55;5.80;;;3.90;;
20423;SDS011;10371;49.042;8.002;2022-09-24T04:14:55;4.23;;;3.83;;
20423;SDS011;10371;49.042;8.002;2022-09-24T04:15:59;4.00;;;3.60;;
20423;SDS011;10371;49.042;8.002;2022-09-24T04:17:01;4.57;;;4.20;;
20423;SDS011;10371;49.042;8.002;2022-09-24T04:18:01;4.37;;;4.07;;
20423;SDS011;10371;49.042;8.002;2022-09-24T04:19:01;4.20;;;3.90;;
20423;SDS011;10371;49.042;8.002;2022-09-24T04:20:02;4.27;;;3.87;;
20423;SDS011;10371;49.042;8.002;2022-09-24T04:21:02;4.13;;;3.83;;
20423;SDS011;10371;49.042;8.002;2022-09-24T04:22:02;4.87;;;3.67;;
20423;SDS011;10371;49.042;8.002;2022-09-24T04:23:03;4.03;;;3.73;;
20423;SDS011;10371;49.042;8.002;2022-09-24T04:24:03;4.13;;;3.70;;
20423;SDS011;10371;49.042;8.002;2022-09-24T04:25:04;3.93;;;3.63;;
20423;SDS011;10371;49.042;8.002;2022-09-24T04:26:05;4.20;;;3.90;;
20423;SDS011;10371;49.042;8.002;2022-09-24T04:27:05;6.23;;;4.10;;
20423;SDS011;10371;49.042;8.002;2022-09-24T04:28:06;3.50;;;3.27;;
20423;SDS011;10371;49.042;8.002;2022-09-24T04:29:08;3.93;;;3.63;;
20423;SDS011;10371;49.042;8.002;2022-09-24T04:30:08;3.80;;;3.53;;
20423;SDS011;10371;49.042;8.002;2022-09-24T04:31:11;3.83;;;3.53;;
20423;SDS011;10371;49.042;8.002;2022-09-24T04:32:12;5.43;;;3.93;;
20423;SDS011;10371;49.042;8.002;2022-09-24T04:33:12;4.00;;;3.43;;
20423;SDS011;10371;49.042;8.002;2022-09-24T04:34:13;4.00;;;3.70;;
20423;SDS011;10371;49.042;8.002;2022-09-24T04:35:14;3.80;;;3.50;;
20423;SDS011;10371;49.042;8.002;2022-09-24T04:36:14;4.07;;;3.70;;
20423;SDS011;10371;49.042;8.002;2022-09-24T04:37:14;3.90;;;3.53;;
20423;SDS011;10371;49.042;8.002;2022-09-24T04:38:14;3.70;;;3.37;;
20423;SDS011;10371;49.042;8.002;2022-09-24T04:39:15;3.77;;;3.47;;
20423;SDS011;10371;49.042;8.002;2022-09-24T04:40:15;4.10;;;3.80;;
20423;SDS011;10371;49.042;8.002;2022-09-24T04:41:16;3.87;;;3.57;;
20423;SDS011;10371;49.042;8.002;2022-09-24T04:42:16;4.90;;;3.40;;
20423;SDS011;10371;49.042;8.002;2022-09-24T04:43:17;3.73;;;3.43;;
20423;SDS011;10371;49.042;8.002;2022-09-24T04:44:18;3.90;;;3.60;;
20423;SDS011;10371;49.042;8.002;2022-09-24T04:45:18;4.70;;;3.80;;
20423;SDS011;10371;49.042;8.002;2022-09-24T04:46:19;3.50;;;3.20;;
20423;SDS011;10371;49.042;8.002;2022-09-24T04:47:20;5.57;;;3.40;;
20423;SDS011;10371;49.042;8.002;2022-09-24T04:48:24;3.87;;;3.53;;
20423;SDS011;10371;49.042;8.002;2022-09-24T04:49:25;3.43;;;3.23;;
20423;SDS011;10371;49.042;8.002;2022-09-24T04:50:27;3.70;;;3.47;;
20423;SDS011;10371;49.042;8.002;2022-09-24T04:51:32;6.10;;;3.90;;
20423;SDS011;10371;49.042;8.002;2022-09-24T04:52:34;4.53;;;3.77;;
20423;SDS011;10371;49.042;8.002;2022-09-24T04:53:35;3.87;;;3.40;;
20423;SDS011;10371;49.042;8.002;2022-09-24T04:54:36;4.00;;;3.40;;
20423;SDS011;10371;49.042;8.002;2022-09-24T04:55:37;3.63;;;3.33;;
20423;SDS011;10371;49.042;8.002;2022-09-24T04:56:38;3.43;;;3.13;;
20423;SDS011;10371;49.042;8.002;2022-09-24T04:57:38;3.87;;;3.47;;
20423;SDS011;10371;49.042;8.002;2022-09-24T04:58:40;4.17;;;3.77;;
20423;SDS011;10371;49.042;8.002;2022-09-24T04:59:41;3.87;;;3.27;;
20423;SDS011;10371;49.042;8.002;2022-09-24T05:00:43;3.73;;;3.43;;
20423;SDS011;10371;49.042;8.002;2022-09-24T05:01:43;3.60;;;3.30;;
20423;SDS011;10371;49.042;8.002;2022-09-24T05:02:46;3.70;;;3.27;;
20423;SDS011;10371;49.042;8.002;2022-09-24T05:03:47;4.03;;;3.40;;
20423;SDS011;10371;49.042;8.002;2022-09-24T05:04:47;3.67;;;3.37;;
20423;SDS011;10371;49.042;8.002;2022-09-24T05:05:48;3.63;;;3.33;;
20423;SDS011;10371;49.042;8.002;2022-09-24T05:06:51;4.13;;;3.80;;
20423;SDS011;10371;49.042;8.002;2022-09-24T05:07:51;4.57;;;4.17;;
20423;SDS011;10371;49.042;8.002;2022-09-24T05:08:52;4.57;;;3.53;;
20423;SDS011;10371;49.042;8.002;2022-09-24T05:09:52;4.10;;;3.67;;
20423;SDS011;10371;49.042;8.002;2022-09-24T05:10:52;3.80;;;3.50;;
20423;SDS011;10371;49.042;8.002;2022-09-24T05:11:53;3.93;;;3.63;;
20423;SDS011;10371;49.042;8.002;2022-09-24T05:12:53;4.00;;;3.60;;
20423;SDS011;10371;49.042;8.002;2022-09-24T05:13:53;3.67;;;3.47;;
20423;SDS011;10371;49.042;8.002;2022-09-24T05:14:54;3.90;;;3.60;;
20423;SDS011;10371;49.042;8.002;2022-09-24T05:15:54;3.80;;;3.50;;
20423;SDS011;10371;49.042;8.002;2022-09-24T05:16:54;4.03;;;3.60;;
20423;SDS011;10371;49.042;8.002;2022-09-24T05:17:55;3.97;;;3.50;;
20423;SDS011;10371;49.042;8.002;2022-09-24T05:18:56;3.63;;;3.33;;
20423;SDS011;10371;49.042;8.002;2022-09-24T05:19:57;4.20;;;3.77;;
20423;SDS011;10371;49.042;8.002;2022-09-24T05:20:58;3.57;;;3.27;;
20423;SDS011;10371;49.042;8.002;2022-09-24T05:21:58;3.40;;;3.10;;
20423;SDS011;10371;49.042;8.002;2022-09-24T05:22:59;3.90;;;3.60;;
20423;SDS011;10371;49.042;8.002;2022-09-24T05:23:59;3.43;;;3.13;;
20423;SDS011;10371;49.042;8.002;2022-09-24T05:24:59;5.10;;;4.03;;
20423;SDS011;10371;49.042;8.002;2022-09-24T05:26:00;3.77;;;3.47;;
20423;SDS011;10371;49.042;8.002;2022-09-24T05:27:19;4.87;;;3.73;;
20423;SDS011;10371;49.042;8.002;2022-09-24T05:28:20;4.37;;;3.97;;
20423;SDS011;10371;49.042;8.002;2022-09-24T05:29:20;4.60;;;4.20;;
20423;SDS011;10371;49.042;8.002;2022-09-24T05:30:22;4.50;;;4.13;;
20423;SDS011;10371;49.042;8.002;2022-09-24T05:31:23;4.73;;;4.30;;
20423;SDS011;10371;49.042;8.002;2022-09-24T05:32:24;4.40;;;4.00;;
20423;SDS011;10371;49.042;8.002;2022-09-24T05:33:24;4.53;;;4.13;;
20423;SDS011;10371;49.042;8.002;2022-09-24T05:34:25;4.23;;;3.93;;
20423;SDS011;10371;49.042;8.002;2022-09-24T05:35:25;4.57;;;4.17;;
20423;SDS011;10371;49.042;8.002;2022-09-24T05:36:25;4.90;;;4.50;;
20423;SDS011;10371;49.042;8.002;2022-09-24T05:37:26;5.00;;;4.50;;
20423;SDS011;10371;49.042;8.002;2022-09-24T05:38:26;6.23;;;4.37;;
20423;SDS011;10371;49.042;8.002;2022-09-24T05:39:28;4.40;;;4.00;;
20423;SDS011;10371;49.042;8.002;2022-09-24T05:40:29;4.50;;;4.10;;
20423;SDS011;10371;49.042;8.002;2022-09-24T05:41:47;4.50;;;4.10;;
20423;SDS011;10371;49.042;8.002;2022-09-24T05:42:47;4.97;;;4.57;;
20423;SDS011;10371;49.042;8.002;2022-09-24T05:43:48;5.10;;;4.70;;
20423;SDS011;10371;49.042;8.002;2022-09-24T05:44:49;5.43;;;5.03;;
20423;SDS011;10371;49.042;8.002;2022-09-24T05:45:49;5.40;;;5.00;;
20423;SDS011;10371;49.042;8.002;2022-09-24T05:46:50;5.60;;;5.10;;
20423;SDS011;10371;49.042;8.002;2022-09-24T05:47:51;5.80;;;5.40;;
20423;SDS011;10371;49.042;8.002;2022-09-24T05:48:51;5.23;;;4.80;;
20423;SDS011;10371;49.042;8.002;2022-09-24T05:49:51;5.10;;;4.70;;
20423;SDS011;10371;49.042;8.002;2022-09-24T05:50:52;4.90;;;4.50;;
20423;SDS011;10371;49.042;8.002;2022-09-24T05:51:54;5.87;;;5.47;;
20423;SDS011;10371;49.042;8.002;2022-09-24T05:52:54;6.43;;;5.93;;
20423;SDS011;10371;49.042;8.002;2022-09-24T05:53:55;5.27;;;4.90;;
20423;SDS011;10371;49.042;8.002;2022-09-24T05:54:55;5.03;;;4.63;;
20423;SDS011;10371;49.042;8.002;2022-09-24T05:55:56;4.53;;;4.13;;
20423;SDS011;10371;49.042;8.002;2022-09-24T05:56:57;4.23;;;3.83;;
20423;SDS011;10371;49.042;8.002;2022-09-24T05:58:04;4.10;;;3.70;;
20423;SDS011;10371;49.042;8.002;2022-09-24T05:59:06;4.07;;;3.77;;
20423;SDS011;10371;49.042;8.002;2022-09-24T06:00:06;4.37;;;3.90;;
20423;SDS011;10371;49.042;8.002;2022-09-24T06:01:07;4.83;;;4.43;;
20423;SDS011;10371;49.042;8.002;2022-09-24T06:02:07;5.27;;;4.80;;
20423;SDS011;10371;49.042;8.002;2022-09-24T06:03:12;4.63;;;4.30;;
20423;SDS011;10371;49.042;8.002;2022-09-24T06:04:14;4.63;;;4.23;;
20423;SDS011;10371;49.042;8.002;2022-09-24T06:05:15;4.23;;;3.93;;
20423;SDS011;10371;49.042;8.002;2022-09-24T06:06:15;5.07;;;3.70;;
20423;SDS011;10371;49.042;8.002;2022-09-24T06:07:15;4.93;;;3.57;;
20423;SDS011;10371;49.042;8.002;2022-09-24T06:08:16;4.00;;;3.60;;
20423;SDS011;10371;49.042;8.002;2022-09-24T06:09:18;4.18;;;3.88;;
20423;SDS011;10371;49.042;8.002;2022-09-24T06:10:18;3.73;;;3.53;;
20423;SDS011;10371;49.042;8.002;2022-09-24T06:11:18;4.03;;;3.73;;
20423;SDS011;10371;49.042;8.002;2022-09-24T06:12:20;4.43;;;4.03;;
20423;SDS011;10371;49.042;8.002;2022-09-24T06:13:21;3.97;;;3.67;;
20423;SDS011;10371;49.042;8.002;2022-09-24T06:14:21;4.20;;;3.90;;
20423;SDS011;10371;49.042;8.002;2022-09-24T06:15:22;4.43;;;4.03;;
20423;SDS011;10371;49.042;8.002;2022-09-24T06:16:23;4.22;;;3.83;;
20423;SDS011;10371;49.042;8.002;2022-09-24T06:17:23;5.10;;;4.20;;
20423;SDS011;10371;49.042;8.002;2022-09-24T06:18:24;8.07;;;4.30;;
20423;SDS011;10371;49.042;8.002;2022-09-24T06:19:25;4.32;;;3.90;;
20423;SDS011;10371;49.042;8.002;2022-09-24T06:20:25;3.97;;;3.65;;
20423;SDS011;10371;49.042;8.002;2022-09-24T06:21:25;4.22;;;3.92;;
20423;SDS011;10371;49.042;8.002;2022-09-24T06:22:26;4.60;;;4.30;;
20423;SDS011;10371;49.042;8.002;2022-09-24T06:23:27;4.35;;;3.95;;
20423;SDS011;10371;49.042;8.002;2022-09-24T06:24:28;5.43;;;4.93;;
20423;SDS011;10371;49.042;8.002;2022-09-24T06:25:28;5.22;;;4.70;;
20423;SDS011;10371;49.042;8.002;2022-09-24T06:26:29;4.80;;;4.40;;
20423;SDS011;10371;49.042;8.002;2022-09-24T06:27:32;4.65;;;4.13;;
20423;SDS011;10371;49.042;8.002;2022-09-24T06:28:32;4.35;;;4.05;;
20423;SDS011;10371;49.042;8.002;2022-09-24T06:29:33;4.23;;;3.93;;
20423;SDS011;10371;49.042;8.002;2022-09-24T06:30:35;4.22;;;3.83;;
20423;SDS011;10371;49.042;8.002;2022-09-24T06:31:37;4.10;;;3.80;;